RYR292Q LIRP-LIEE
Flight info
| Callsign | RYR292Q |
|---|---|
| Flight time | 0h 47m |
| Altitude | 19000 |
| Route | DOCME M729 ELB/N0436F350 DCT NEMIT DCT BATOX DCT ALEDI/N0341F190 M126 LEDRO |
| Aircraft | B738/M-SDE2E3FGHIRWXY/LB1 |
Departure
| Time | 2026-04-27 18:30 |
|---|---|
| Airport | Pisa International Airport (LIRP) |
Arrival
| Time | 2026-04-27 19:17 |
|---|---|
| Airport | Cagliari Elmas Airport (LIEE) |
| Time | Latitude | Longitude | Altitude | Speed | Heading |
|---|---|---|---|---|---|
| 2026-04-27 18:14 | 43.69759 | 10.40093 | 14 ft | 0 kts | 8° |
| 2026-04-27 18:21 | 43.69755 | 10.40092 | 15 ft | 3 kts | 8° |
| 2026-04-27 18:21 | 43.69730 | 10.40086 | 16 ft | 4 kts | 13° |
| 2026-04-27 18:22 | 43.69704 | 10.40075 | 16 ft | 4 kts | 27° |
| 2026-04-27 18:22 | 43.69683 | 10.40054 | 15 ft | 4 kts | 52° |
| 2026-04-27 18:22 | 43.69676 | 10.40041 | 15 ft | 1 kts | 64° |
| 2026-04-27 18:24 | 43.69676 | 10.40044 | 15 ft | 2 kts | 71° |
| 2026-04-27 18:24 | 43.69646 | 10.40062 | 14 ft | 6 kts | 175° |
| 2026-04-27 18:24 | 43.69564 | 10.40072 | 15 ft | 13 kts | 174° |
| 2026-04-27 18:24 | 43.69474 | 10.40089 | 16 ft | 13 kts | 171° |
| 2026-04-27 18:25 | 43.69387 | 10.40106 | 22 ft | 13 kts | 179° |
| 2026-04-27 18:25 | 43.69309 | 10.40058 | 23 ft | 14 kts | 217° |
| 2026-04-27 18:25 | 43.69199 | 10.39944 | 22 ft | 22 kts | 216° |
| 2026-04-27 18:25 | 43.69078 | 10.39820 | 19 ft | 21 kts | 218° |
| 2026-04-27 18:26 | 43.68961 | 10.39697 | 18 ft | 21 kts | 216° |
| 2026-04-27 18:26 | 43.68847 | 10.39578 | 18 ft | 20 kts | 217° |
| 2026-04-27 18:26 | 43.68733 | 10.39461 | 19 ft | 22 kts | 216° |
| 2026-04-27 18:26 | 43.68607 | 10.39332 | 17 ft | 23 kts | 217° |
| 2026-04-27 18:27 | 43.68481 | 10.39206 | 16 ft | 22 kts | 214° |
| 2026-04-27 18:27 | 43.68361 | 10.39079 | 15 ft | 21 kts | 216° |
| 2026-04-27 18:27 | 43.68242 | 10.38960 | 13 ft | 21 kts | 218° |
| 2026-04-27 18:27 | 43.68129 | 10.38840 | 14 ft | 20 kts | 217° |
| 2026-04-27 18:28 | 43.68010 | 10.38716 | 12 ft | 24 kts | 217° |
| 2026-04-27 18:28 | 43.67882 | 10.38580 | 13 ft | 23 kts | 218° |
| 2026-04-27 18:28 | 43.67758 | 10.38452 | 15 ft | 22 kts | 213° |
| 2026-04-27 18:28 | 43.67647 | 10.38346 | 12 ft | 13 kts | 210° |
| 2026-04-27 18:29 | 43.67583 | 10.38413 | 13 ft | 13 kts | 128° |
| 2026-04-27 18:29 | 43.67531 | 10.38509 | 17 ft | 12 kts | 112° |
| 2026-04-27 18:29 | 43.67663 | 10.38691 | 17 ft | 59 kts | 37° |
| 2026-04-27 18:29 | 43.68192 | 10.39238 | 16 ft | 129 kts | 37° |
| 2026-04-27 18:30 | 43.69057 | 10.40136 | 127 ft | 174 kts | 36° |
| 2026-04-27 18:30 | 43.70012 | 10.41182 | 925 ft | 176 kts | 37° |
| 2026-04-27 18:30 | 43.71022 | 10.42167 | 1738 ft | 177 kts | 33° |
| 2026-04-27 18:30 | 43.72160 | 10.43071 | 2125 ft | 204 kts | 18° |
| 2026-04-27 18:31 | 43.73576 | 10.43404 | 2669 ft | 212 kts | 358° |
| 2026-04-27 18:31 | 43.75050 | 10.43068 | 3199 ft | 217 kts | 339° |
| 2026-04-27 18:31 | 43.76382 | 10.42094 | 3904 ft | 218 kts | 321° |
| 2026-04-27 18:31 | 43.77420 | 10.40585 | 4661 ft | 217 kts | 302° |
| 2026-04-27 18:32 | 43.78048 | 10.38682 | 5361 ft | 220 kts | 283° |
| 2026-04-27 18:32 | 43.78092 | 10.36551 | 5833 ft | 234 kts | 252° |
| 2026-04-27 18:32 | 43.77125 | 10.34636 | 6052 ft | 259 kts | 214° |
| 2026-04-27 18:32 | 43.75394 | 10.33878 | 6622 ft | 270 kts | 179° |
| 2026-04-27 18:33 | 43.73547 | 10.34462 | 7309 ft | 276 kts | 165° |
| 2026-04-27 18:33 | 43.71630 | 10.34754 | 8020 ft | 280 kts | 181° |
| 2026-04-27 18:33 | 43.69672 | 10.34728 | 8781 ft | 283 kts | 181° |
| 2026-04-27 18:33 | 43.67686 | 10.34732 | 9527 ft | 287 kts | 180° |
| 2026-04-27 18:34 | 43.65698 | 10.34765 | 10229 ft | 292 kts | 179° |
| 2026-04-27 18:34 | 43.63612 | 10.34824 | 10547 ft | 311 kts | 179° |
| 2026-04-27 18:34 | 43.61365 | 10.34907 | 10722 ft | 334 kts | 178° |
| 2026-04-27 18:34 | 43.58969 | 10.35011 | 10885 ft | 355 kts | 178° |
| 2026-04-27 18:35 | 43.56431 | 10.35134 | 11079 ft | 374 kts | 178° |
| 2026-04-27 18:35 | 43.53796 | 10.35269 | 11511 ft | 383 kts | 178° |
| 2026-04-27 18:35 | 43.51125 | 10.35413 | 12136 ft | 386 kts | 178° |
| 2026-04-27 18:35 | 43.48433 | 10.35560 | 12806 ft | 389 kts | 178° |
| 2026-04-27 18:36 | 43.45706 | 10.35709 | 13369 ft | 395 kts | 178° |
| 2026-04-27 18:36 | 43.42950 | 10.35859 | 14011 ft | 399 kts | 178° |
| 2026-04-27 18:36 | 43.40161 | 10.36010 | 14555 ft | 403 kts | 178° |
| 2026-04-27 18:36 | 43.37347 | 10.36146 | 15212 ft | 405 kts | 180° |
| 2026-04-27 18:37 | 43.34543 | 10.35740 | 15854 ft | 407 kts | 193° |
| 2026-04-27 18:37 | 43.31794 | 10.34729 | 16475 ft | 411 kts | 196° |
| 2026-04-27 18:37 | 43.29020 | 10.33694 | 17042 ft | 415 kts | 196° |
| 2026-04-27 18:37 | 43.26215 | 10.32664 | 17610 ft | 419 kts | 196° |
| 2026-04-27 18:38 | 43.23380 | 10.31635 | 18184 ft | 423 kts | 195° |
| 2026-04-27 18:38 | 43.20521 | 10.30607 | 18697 ft | 427 kts | 195° |
| 2026-04-27 18:38 | 43.17675 | 10.29590 | 19211 ft | 430 kts | 195° |
| 2026-04-27 18:38 | 43.14736 | 10.28544 | 19759 ft | 432 kts | 195° |
| 2026-04-27 18:39 | 43.11858 | 10.27523 | 20285 ft | 434 kts | 195° |
| 2026-04-27 18:39 | 43.08924 | 10.26482 | 20788 ft | 437 kts | 195° |
| 2026-04-27 18:39 | 43.05970 | 10.25436 | 21268 ft | 440 kts | 195° |
| 2026-04-27 18:39 | 43.02993 | 10.24383 | 21739 ft | 443 kts | 195° |
| 2026-04-27 18:40 | 42.99999 | 10.23324 | 22211 ft | 446 kts | 195° |
| 2026-04-27 18:40 | 42.96986 | 10.22260 | 22668 ft | 449 kts | 195° |
| 2026-04-27 18:40 | 42.93954 | 10.21189 | 23119 ft | 452 kts | 195° |
| 2026-04-27 18:40 | 42.90903 | 10.20114 | 23559 ft | 454 kts | 195° |
| 2026-04-27 18:41 | 42.87836 | 10.19033 | 23930 ft | 457 kts | 195° |
| 2026-04-27 18:41 | 42.84746 | 10.17946 | 24280 ft | 460 kts | 195° |
| 2026-04-27 18:41 | 42.81647 | 10.16857 | 24643 ft | 462 kts | 195° |
| 2026-04-27 18:41 | 42.78526 | 10.15761 | 25000 ft | 464 kts | 195° |
| 2026-04-27 18:42 | 42.75391 | 10.14661 | 25357 ft | 466 kts | 195° |
| 2026-04-27 18:42 | 42.73313 | 10.13933 | 25590 ft | 467 kts | 195° |
| 2026-04-27 18:42 | 42.69079 | 10.12450 | 26018 ft | 471 kts | 195° |
| 2026-04-27 18:42 | 42.65897 | 10.11338 | 26329 ft | 473 kts | 195° |
| 2026-04-27 18:43 | 42.62696 | 10.10219 | 26638 ft | 476 kts | 195° |
| 2026-04-27 18:43 | 42.59484 | 10.09099 | 26946 ft | 478 kts | 195° |
| 2026-04-27 18:43 | 42.56259 | 10.07975 | 27260 ft | 479 kts | 195° |
| 2026-04-27 18:43 | 42.53025 | 10.06849 | 27639 ft | 480 kts | 195° |
| 2026-04-27 18:44 | 42.49835 | 10.05739 | 28012 ft | 480 kts | 195° |
| 2026-04-27 18:44 | 42.46608 | 10.04618 | 28428 ft | 479 kts | 195° |
| 2026-04-27 18:44 | 42.43384 | 10.03499 | 28869 ft | 478 kts | 195° |
| 2026-04-27 18:44 | 42.40167 | 10.02384 | 29300 ft | 477 kts | 195° |
| 2026-04-27 18:45 | 42.36955 | 10.01271 | 29707 ft | 477 kts | 195° |
| 2026-04-27 18:45 | 42.33746 | 10.00161 | 30111 ft | 476 kts | 195° |
| 2026-04-27 18:45 | 42.30536 | 9.99051 | 30477 ft | 475 kts | 195° |
| 2026-04-27 18:45 | 42.27335 | 9.97946 | 30825 ft | 475 kts | 195° |
| 2026-04-27 18:46 | 42.24136 | 9.96842 | 31158 ft | 474 kts | 195° |
| 2026-04-27 18:46 | 42.20937 | 9.95740 | 31500 ft | 474 kts | 195° |
| 2026-04-27 18:46 | 42.17744 | 9.94641 | 31841 ft | 473 kts | 195° |
| 2026-04-27 18:46 | 42.14566 | 9.93549 | 32230 ft | 471 kts | 195° |
| 2026-04-27 18:47 | 42.11388 | 9.92457 | 32585 ft | 470 kts | 195° |
| 2026-04-27 18:47 | 42.08216 | 9.91369 | 32876 ft | 471 kts | 195° |
| 2026-04-27 18:47 | 42.05036 | 9.90278 | 33164 ft | 471 kts | 195° |
| 2026-04-27 18:47 | 42.01862 | 9.89192 | 33494 ft | 471 kts | 195° |
| 2026-04-27 18:48 | 41.98695 | 9.88108 | 33833 ft | 470 kts | 195° |
| 2026-04-27 18:48 | 41.95528 | 9.87026 | 34181 ft | 468 kts | 195° |
| 2026-04-27 18:48 | 41.92383 | 9.85952 | 34511 ft | 466 kts | 195° |
| 2026-04-27 18:48 | 41.89237 | 9.84880 | 34751 ft | 466 kts | 195° |
| 2026-04-27 18:49 | 41.86088 | 9.83807 | 34942 ft | 468 kts | 195° |
| 2026-04-27 18:49 | 41.82931 | 9.82732 | 35110 ft | 469 kts | 195° |
| 2026-04-27 18:49 | 41.76577 | 9.80572 | 35108 ft | 471 kts | 195° |
| 2026-04-27 18:50 | 41.70266 | 9.78433 | 35105 ft | 465 kts | 195° |
| 2026-04-27 18:50 | 41.63998 | 9.76312 | 35116 ft | 464 kts | 195° |
| 2026-04-27 18:51 | 41.57746 | 9.74200 | 35109 ft | 463 kts | 195° |
| 2026-04-27 18:51 | 41.51508 | 9.72097 | 35110 ft | 462 kts | 195° |
| 2026-04-27 18:52 | 41.45270 | 9.69999 | 35109 ft | 462 kts | 195° |
| 2026-04-27 18:53 | 41.35957 | 9.66873 | 35105 ft | 463 kts | 195° |
| 2026-04-27 18:53 | 41.29713 | 9.64783 | 35107 ft | 463 kts | 195° |
| 2026-04-27 18:54 | 41.23466 | 9.62696 | 35100 ft | 463 kts | 195° |
| 2026-04-27 18:54 | 41.18267 | 9.60962 | 35095 ft | 463 kts | 195° |
| 2026-04-27 18:55 | 41.12011 | 9.58880 | 35092 ft | 463 kts | 195° |
| 2026-04-27 18:55 | 41.05759 | 9.56803 | 35083 ft | 463 kts | 195° |
| 2026-04-27 18:56 | 40.99504 | 9.54729 | 35050 ft | 464 kts | 195° |
| 2026-04-27 18:56 | 40.96352 | 9.53684 | 34480 ft | 469 kts | 195° |
| 2026-04-27 18:56 | 40.93206 | 9.52644 | 33862 ft | 465 kts | 195° |
| 2026-04-27 18:56 | 40.90070 | 9.51608 | 33089 ft | 464 kts | 195° |
| 2026-04-27 18:57 | 40.86938 | 9.50575 | 32375 ft | 463 kts | 195° |
| 2026-04-27 18:57 | 40.83814 | 9.49545 | 31629 ft | 463 kts | 195° |
| 2026-04-27 18:57 | 40.80691 | 9.48516 | 30883 ft | 463 kts | 195° |
| 2026-04-27 18:57 | 40.77565 | 9.47486 | 30143 ft | 463 kts | 195° |
| 2026-04-27 18:58 | 40.74435 | 9.46457 | 29209 ft | 464 kts | 195° |
| 2026-04-27 18:58 | 40.71308 | 9.45430 | 28351 ft | 463 kts | 195° |
| 2026-04-27 18:58 | 40.68187 | 9.44406 | 27454 ft | 463 kts | 195° |
| 2026-04-27 18:58 | 40.65061 | 9.43380 | 26525 ft | 463 kts | 195° |
| 2026-04-27 18:59 | 40.61934 | 9.42356 | 25687 ft | 462 kts | 194° |
| 2026-04-27 18:59 | 40.58832 | 9.41341 | 25046 ft | 457 kts | 194° |
| 2026-04-27 18:59 | 40.55765 | 9.40339 | 24384 ft | 452 kts | 194° |
| 2026-04-27 18:59 | 40.52766 | 9.39359 | 23743 ft | 448 kts | 194° |
| 2026-04-27 19:00 | 40.49753 | 9.38376 | 22961 ft | 445 kts | 194° |
| 2026-04-27 19:00 | 40.46764 | 9.37402 | 22276 ft | 440 kts | 194° |
| 2026-04-27 19:00 | 40.43811 | 9.36440 | 21611 ft | 435 kts | 194° |
| 2026-04-27 19:00 | 40.40888 | 9.35489 | 20952 ft | 430 kts | 194° |
| 2026-04-27 19:01 | 40.37996 | 9.34548 | 20308 ft | 426 kts | 194° |
| 2026-04-27 19:01 | 40.35126 | 9.33616 | 19672 ft | 423 kts | 194° |
| 2026-04-27 19:01 | 40.32284 | 9.32694 | 19044 ft | 419 kts | 194° |
| 2026-04-27 19:01 | 40.29463 | 9.31779 | 18411 ft | 416 kts | 194° |
| 2026-04-27 19:02 | 40.26655 | 9.30869 | 17682 ft | 414 kts | 194° |
| 2026-04-27 19:02 | 40.23872 | 9.29968 | 17015 ft | 410 kts | 194° |
| 2026-04-27 19:02 | 40.21112 | 9.29075 | 16378 ft | 407 kts | 194° |
| 2026-04-27 19:02 | 40.18380 | 9.28192 | 15753 ft | 403 kts | 194° |
| 2026-04-27 19:03 | 40.15662 | 9.27314 | 15134 ft | 400 kts | 194° |
| 2026-04-27 19:03 | 40.12968 | 9.26445 | 14526 ft | 398 kts | 194° |
| 2026-04-27 19:03 | 40.10284 | 9.25579 | 13884 ft | 397 kts | 194° |
| 2026-04-27 19:03 | 40.08514 | 9.25009 | 13429 ft | 395 kts | 194° |
| 2026-04-27 19:04 | 40.04960 | 9.23865 | 12558 ft | 391 kts | 194° |
| 2026-04-27 19:04 | 40.02331 | 9.23019 | 11957 ft | 387 kts | 194° |
| 2026-04-27 19:04 | 39.99730 | 9.22183 | 11421 ft | 382 kts | 194° |
| 2026-04-27 19:04 | 39.97202 | 9.21372 | 11288 ft | 367 kts | 194° |
| 2026-04-27 19:05 | 39.94772 | 9.20593 | 11123 ft | 354 kts | 194° |
| 2026-04-27 19:05 | 39.92442 | 9.19847 | 10946 ft | 334 kts | 194° |
| 2026-04-27 19:05 | 39.90244 | 9.19144 | 10745 ft | 317 kts | 194° |
| 2026-04-27 19:05 | 39.88146 | 9.18476 | 10539 ft | 306 kts | 195° |
| 2026-04-27 19:06 | 39.86103 | 9.17821 | 10352 ft | 299 kts | 194° |
| 2026-04-27 19:06 | 39.84103 | 9.17179 | 10159 ft | 293 kts | 194° |
| 2026-04-27 19:06 | 39.82134 | 9.16548 | 9968 ft | 290 kts | 194° |
| 2026-04-27 19:06 | 39.80190 | 9.15925 | 9758 ft | 285 kts | 194° |
| 2026-04-27 19:07 | 39.78278 | 9.15314 | 9546 ft | 281 kts | 194° |
| 2026-04-27 19:07 | 39.76397 | 9.14714 | 9333 ft | 276 kts | 194° |
| 2026-04-27 19:07 | 39.74565 | 9.14129 | 9122 ft | 273 kts | 194° |
| 2026-04-27 19:07 | 39.72728 | 9.13543 | 8915 ft | 271 kts | 194° |
| 2026-04-27 19:08 | 39.70896 | 9.12959 | 8675 ft | 271 kts | 194° |
| 2026-04-27 19:08 | 39.69059 | 9.12374 | 8377 ft | 273 kts | 194° |
| 2026-04-27 19:08 | 39.67208 | 9.11784 | 8053 ft | 275 kts | 194° |
| 2026-04-27 19:08 | 39.65352 | 9.11194 | 7733 ft | 275 kts | 194° |
| 2026-04-27 19:09 | 39.63497 | 9.10604 | 7419 ft | 275 kts | 193° |
| 2026-04-27 19:09 | 39.61639 | 9.10013 | 7106 ft | 275 kts | 193° |
| 2026-04-27 19:09 | 39.59781 | 9.09423 | 6794 ft | 275 kts | 193° |
| 2026-04-27 19:09 | 39.57922 | 9.08833 | 6477 ft | 275 kts | 193° |
| 2026-04-27 19:10 | 39.56083 | 9.08250 | 6171 ft | 270 kts | 193° |
| 2026-04-27 19:10 | 39.54283 | 9.07679 | 5913 ft | 263 kts | 193° |
| 2026-04-27 19:10 | 39.52598 | 9.06863 | 5634 ft | 258 kts | 212° |
| 2026-04-27 19:10 | 39.51643 | 9.05979 | 5488 ft | 253 kts | 216° |
| 2026-04-27 19:11 | 39.49780 | 9.04174 | 5147 ft | 247 kts | 215° |
| 2026-04-27 19:11 | 39.48414 | 9.02862 | 4872 ft | 243 kts | 214° |
| 2026-04-27 19:11 | 39.47056 | 9.01567 | 4485 ft | 242 kts | 214° |
| 2026-04-27 19:11 | 39.45701 | 9.00281 | 4106 ft | 241 kts | 214° |
| 2026-04-27 19:12 | 39.44350 | 8.99004 | 3747 ft | 240 kts | 214° |
| 2026-04-27 19:12 | 39.43022 | 8.97751 | 3506 ft | 233 kts | 214° |
| 2026-04-27 19:12 | 39.41726 | 8.96530 | 3229 ft | 228 kts | 214° |
| 2026-04-27 19:12 | 39.40459 | 8.95340 | 2952 ft | 221 kts | 214° |
| 2026-04-27 19:13 | 39.39242 | 8.94196 | 2669 ft | 212 kts | 214° |
| 2026-04-27 19:13 | 39.38069 | 8.93114 | 2380 ft | 203 kts | 209° |
| 2026-04-27 19:13 | 39.36745 | 8.92691 | 2016 ft | 197 kts | 170° |
| 2026-04-27 19:13 | 39.35523 | 8.93383 | 1770 ft | 189 kts | 142° |
| 2026-04-27 19:14 | 39.34573 | 8.94462 | 1701 ft | 174 kts | 137° |
| 2026-04-27 19:14 | 39.33711 | 8.95466 | 1689 ft | 164 kts | 137° |
| 2026-04-27 19:14 | 39.32895 | 8.96436 | 1704 ft | 154 kts | 135° |
| 2026-04-27 19:14 | 39.32137 | 8.97361 | 1643 ft | 148 kts | 136° |
| 2026-04-27 19:15 | 39.31362 | 8.98261 | 1420 ft | 151 kts | 138° |
| 2026-04-27 19:15 | 39.30564 | 8.99137 | 1183 ft | 150 kts | 139° |
| 2026-04-27 19:15 | 39.29798 | 9.00036 | 961 ft | 149 kts | 137° |
| 2026-04-27 19:15 | 39.29043 | 9.00939 | 816 ft | 145 kts | 139° |
| 2026-04-27 19:16 | 39.28292 | 9.01805 | 599 ft | 144 kts | 139° |
| 2026-04-27 19:16 | 39.27805 | 9.02378 | 474 ft | 141 kts | 140° |
| 2026-04-27 19:16 | 39.26824 | 9.03494 | 220 ft | 141 kts | 141° |
| 2026-04-27 19:16 | 39.26086 | 9.04340 | 47 ft | 140 kts | 140° |
| 2026-04-27 19:17 | 39.25425 | 9.05102 | 14 ft | 107 kts | 138° |
| 2026-04-27 19:17 | 39.25067 | 9.05515 | 15 ft | 18 kts | 138° |
| 2026-04-27 19:17 | 39.25066 | 9.05646 | 15 ft | 13 kts | 68° |
| 2026-04-27 19:17 | 39.25095 | 9.05716 | 15 ft | 5 kts | 59° |
| 2026-04-27 19:18 | 39.25114 | 9.05756 | 16 ft | 5 kts | 58° |
| 2026-04-27 19:18 | 39.25132 | 9.05795 | 14 ft | 5 kts | 58° |
| 2026-04-27 19:18 | 39.25150 | 9.05833 | 14 ft | 5 kts | 57° |
| 2026-04-27 19:18 | 39.25158 | 9.05874 | 14 ft | 6 kts | 111° |
| 2026-04-27 19:19 | 39.25144 | 9.05932 | 14 ft | 8 kts | 59° |
| 2026-04-27 19:19 | 39.25178 | 9.05982 | 14 ft | 5 kts | 34° |
| 2026-04-27 19:19 | 39.25209 | 9.05976 | 14 ft | 4 kts | 328° |
| 2026-04-27 19:19 | 39.25231 | 9.05953 | 14 ft | 1 kts | 321° |
| 2026-04-27 19:20 | 39.25235 | 9.05949 | 14 ft | 0 kts | 321° |